地図

経路データ

SID SEASON NUMBER BASIN SUBBASIN NAME ISO_TIME NATURE LAT LON WMO_WIND WMO_PRES WMO_AGENCY TRACK_TYPE DIST2LAND LANDFALL IFLAG USA_AGENCY USA_ATCF_ID USA_LAT USA_LON USA_RECORD USA_STATUS USA_WIND USA_PRES USA_SSHS USA_R34_NE USA_R34_SE USA_R34_SW USA_R34_NW USA_R50_NE USA_R50_SE USA_R50_SW USA_R50_NW USA_R64_NE USA_R64_SE USA_R64_SW USA_R64_NW USA_POCI USA_ROCI USA_RMW USA_EYE TOKYO_LAT TOKYO_LON TOKYO_GRADE TOKYO_WIND TOKYO_PRES TOKYO_R50_DIR TOKYO_R50_LONG TOKYO_R50_SHORT TOKYO_R30_DIR TOKYO_R30_LONG TOKYO_R30_SHORT TOKYO_LAND CMA_LAT CMA_LON CMA_CAT CMA_WIND CMA_PRES HKO_LAT HKO_LON HKO_CAT HKO_WIND HKO_PRES NEWDELHI_LAT NEWDELHI_LON NEWDELHI_GRADE NEWDELHI_WIND NEWDELHI_PRES NEWDELHI_CI NEWDELHI_DP NEWDELHI_POCI REUNION_LAT REUNION_LON REUNION_TYPE REUNION_WIND REUNION_PRES REUNION_TNUM REUNION_CI REUNION_RMW REUNION_R34_NE REUNION_R34_SE REUNION_R34_SW REUNION_R34_NW REUNION_R50_NE REUNION_R50_SE REUNION_R50_SW REUNION_R50_NW REUNION_R64_NE REUNION_R64_SE REUNION_R64_SW REUNION_R64_NW BOM_LAT BOM_LON BOM_TYPE BOM_WIND BOM_PRES BOM_TNUM BOM_CI BOM_RMW BOM_R34_NE BOM_R34_SE BOM_R34_SW BOM_R34_NW BOM_R50_NE BOM_R50_SE BOM_R50_SW BOM_R50_NW BOM_R64_NE BOM_R64_SE BOM_R64_SW BOM_R64_NW BOM_ROCI BOM_POCI BOM_EYE BOM_POS_METHOD BOM_PRES_METHOD NADI_LAT NADI_LON NADI_CAT NADI_WIND NADI_PRES WELLINGTON_LAT WELLINGTON_LON WELLINGTON_WIND WELLINGTON_PRES DS824_LAT DS824_LON DS824_STAGE DS824_WIND DS824_PRES TD9636_LAT TD9636_LON TD9636_STAGE TD9636_WIND TD9636_PRES TD9635_LAT TD9635_LON TD9635_WIND TD9635_PRES TD9635_ROCI NEUMANN_LAT NEUMANN_LON NEUMANN_CLASS NEUMANN_WIND NEUMANN_PRES MLC_LAT MLC_LON MLC_CLASS MLC_WIND MLC_PRES USA_GUST BOM_GUST BOM_GUST_PER REUNION_GUST REUNION_GUST_PER USA_SEAHGT USA_SEARAD_NE USA_SEARAD_SE USA_SEARAD_SW USA_SEARAD_NW STORM_SPEED STORM_DIR
1937234N10136 1937 34 WP MM NOT_NAMED 1937-08-22 10:00:00 NR 9.90000 136.300 main 1094 1073 __________O___ -1 9.90000 136.300 4 5 257
1937234N10136 1937 34 WP MM NOT_NAMED 1937-08-22 12:00:00 NR 9.86010 136.130 main 1073 1049 __________P___ -1 9.86010 136.130 4 5 257
1937234N10136 1937 34 WP MM NOT_NAMED 1937-08-22 15:00:00 NR 9.80268 135.857 main 1049 1006 __________P___ -1 9.80268 135.857 4 6 259
1937234N10136 1937 34 WP MM NOT_NAMED 1937-08-22 18:00:00 NR 9.75162 135.540 main 1006 972 __________P___ -1 9.75162 135.540 4 7 262
1937234N10136 1937 34 WP MM NOT_NAMED 1937-08-22 21:00:00 NR 9.71074 135.150 main 972 950 __________P___ -1 9.71074 135.150 4 8 264
1937234N10136 1937 34 WP MM NOT_NAMED 1937-08-22 22:00:00 NR 9.70000 135.000 main 950 918 __________O___ -1 9.70000 135.000 4 10 267
1937234N10136 1937 34 WP MM NOT_NAMED 1937-08-23 00:00:00 NR 9.68347 134.665 main 918 854 __________P___ -1 9.68347 134.665 4 11 268
1937234N10136 1937 34 WP MM NOT_NAMED 1937-08-23 03:00:00 NR 9.67106 134.094 main 854 791 __________P___ -1 9.67106 134.094 4 12 270
1937234N10136 1937 34 WP MM NOT_NAMED 1937-08-23 06:00:00 NR 9.67348 133.467 main 791 717 __________P___ -1 9.67348 133.467 4 13 271
1937234N10136 1937 34 WP MM NOT_NAMED 1937-08-23 09:00:00 NR 9.69084 132.817 main 717 697 __________P___ -1 9.69084 132.817 4 13 272
1937234N10136 1937 34 WP MM NOT_NAMED 1937-08-23 10:00:00 NR 9.70000 132.600 main 697 655 __________O___ -1 9.70000 132.600 4 12 272
1937234N10136 1937 34 WP MM NOT_NAMED 1937-08-23 12:00:00 NR 9.71099 132.205 main 655 590 __________P___ -1 9.71099 132.205 4 12 272
1937234N10136 1937 34 WP MM NOT_NAMED 1937-08-23 15:00:00 NR 9.74008 131.606 main 590 528 __________P___ -1 9.74008 131.606 4 12 274
1937234N10136 1937 34 WP MM NOT_NAMED 1937-08-23 18:00:00 NR 9.79002 130.986 main 528 456 __________P___ -1 9.79002 130.986 4 13 276
1937234N10136 1937 34 WP MM NOT_NAMED 1937-08-23 21:00:00 NR 9.86716 130.329 main 456 435 __________P___ -1 9.86716 130.329 4 13 277
1937234N10136 1937 34 WP MM NOT_NAMED 1937-08-23 22:00:00 NR 9.90000 130.100 main 435 383 __________O___ -1 9.90000 130.100 4 14 278
1937234N10136 1937 34 WP MM NOT_NAMED 1937-08-24 00:00:00 NR 9.96648 129.625 main 383 312 __________P___ -1 9.96648 129.625 4 15 279
1937234N10136 1937 34 WP MM NOT_NAMED 1937-08-24 03:00:00 NR 10.0913 128.875 main 312 236 __________P___ -1 10.0913 128.875 4 15 280
1937234N10136 1937 34 WP MM NOT_NAMED 1937-08-24 06:00:00 NR 10.2462 128.089 main 236 174 __________P___ -1 10.2462 128.089 4 16 282
1937234N10136 1937 34 WP MM NOT_NAMED 1937-08-24 09:00:00 NR 10.4315 127.276 main 174 142 __________P___ -1 10.4315 127.276 4 17 283
1937234N10136 1937 34 WP MM NOT_NAMED 1937-08-24 10:00:00 NR 10.5000 127.000 main 142 79 __________O___ -1 10.5000 127.000 4 17 284
1937234N10136 1937 34 WP MM NOT_NAMED 1937-08-24 12:00:00 NR 10.6468 126.417 main 79 22 __________P___ -1 10.6468 126.417 4 18 285
1937234N10136 1937 34 WP MM NOT_NAMED 1937-08-24 15:00:00 NR 10.8922 125.522 main 22 0 __________P___ -1 10.8922 125.522 4 18 286
1937234N10136 1937 34 WP MM NOT_NAMED 1937-08-24 18:00:00 NR 11.1536 124.648 main 0 0 __________P___ -1 11.1536 124.648 4 17 288
1937234N10136 1937 34 WP MM NOT_NAMED 1937-08-24 21:00:00 NR 11.4153 123.844 main 24 24 __________P___ -1 11.4153 123.844 4 16 289
1937234N10136 1937 34 WP MM NOT_NAMED 1937-08-24 22:00:00 NR 11.5000 123.600 main 46 15 __________O___ -1 11.5000 123.600 4 14 290
1937234N10136 1937 34 WP MM NOT_NAMED 1937-08-25 00:00:00 NR 11.6572 123.183 main 24 22 __________P___ -1 11.6572 123.183 4 12 292
1937234N10136 1937 34 WP MM NOT_NAMED 1937-08-25 03:00:00 NR 11.8876 122.641 main 31 24 __________P___ -1 11.8876 122.641 4 11 294
1937234N10136 1937 34 WP MM NOT_NAMED 1937-08-25 06:00:00 NR 12.1117 122.152 main 33 32 __________P___ -1 12.1117 122.152 4 11 295
1937234N10136 1937 34 WP MM NOT_NAMED 1937-08-25 09:00:00 NR 12.3291 121.669 main 32 10 __________P___ -1 12.3291 121.669 4 11 294
1937234N10136 1937 34 WP MM NOT_NAMED 1937-08-25 10:00:00 NR 12.4000 121.500 main 10 0 __________O___ -1 12.4000 121.500 4 12 292
1937234N10136 1937 34 WP MM NOT_NAMED 1937-08-25 12:00:00 NR 12.5497 121.096 main 0 0 __________P___ -1 12.5497 121.096 4 13 290
1937234N10136 1937 34 WP MM NOT_NAMED 1937-08-25 15:00:00 NR 12.7682 120.471 main 32 43 __________P___ -1 12.7682 120.471 4 13 289
1937234N10136 1937 34 WP MM NOT_NAMED 1937-08-25 18:00:00 NR 12.9708 119.853 main 62 70 __________P___ -1 12.9708 119.853 4 12 288
1937234N10136 1937 34 WP MM NOT_NAMED 1937-08-25 21:00:00 NR 13.1481 119.277 main 113 121 __________P___ -1 13.1481 119.277 4 12 287
1937234N10136 1937 34 WP MM NOT_NAMED 1937-08-25 22:00:00 NR 13.2000 119.100 main 131 131 __________O___ -1 13.2000 119.100 4 10 286
1937234N10136 1937 34 WP MM NOT_NAMED 1937-08-26 00:00:00 NR 13.2837 118.787 main 162 162 __________P___ -1 13.2837 118.787 4 9 285
1937234N10136 1937 34 WP MM NOT_NAMED 1937-08-26 03:00:00 NR 13.3844 118.369 main 205 216 __________P___ -1 13.3844 118.369 4 8 284
1937234N10136 1937 34 WP MM NOT_NAMED 1937-08-26 06:00:00 NR 13.4718 117.989 main 249 249 __________P___ -1 13.4718 117.989 4 7 284
1937234N10136 1937 34 WP MM NOT_NAMED 1937-08-26 09:00:00 NR 13.5647 117.623 main 292 292 __________P___ -1 13.5647 117.623 4 7 285
1937234N10136 1937 34 WP MM NOT_NAMED 1937-08-26 10:00:00 NR 13.6000 117.500 main 303 303 __________O___ -1 13.6000 117.500 4 8 287
1937234N10136 1937 34 WP MM NOT_NAMED 1937-08-26 12:00:00 NR 13.6860 117.218 main 336 336 __________P___ -1 13.6860 117.218 4 9 288
1937234N10136 1937 34 WP MM NOT_NAMED 1937-08-26 15:00:00 NR 13.8276 116.794 main 372 372 __________P___ -1 13.8276 116.794 4 9 290
1937234N10136 1937 34 WP MM NOT_NAMED 1937-08-26 18:00:00 NR 13.9814 116.386 main 407 407 __________P___ -1 13.9814 116.386 4 8 293
1937234N10136 1937 34 WP MM NOT_NAMED 1937-08-26 21:00:00 NR 14.1442 116.013 main 444 440 __________P___ -1 14.1442 116.013 4 8 295
1937234N10136 1937 34 WP MM NOT_NAMED 1937-08-26 22:00:00 NR 14.2000 115.900 main 450 450 __________O___ -1 14.2000 115.900 4 7 297
1937234N10136 1937 34 WP MM NOT_NAMED 1937-08-27 00:00:00 NR 14.3002 115.696 main 468 468 __________P___ -1 14.3002 115.696 4 6 299
1937234N10136 1937 34 WP MM NOT_NAMED 1937-08-27 03:00:00 NR 14.4568 115.429 main 491 491 __________P___ -1 14.4568 115.429 4 6 304
1937234N10136 1937 34 WP MM NOT_NAMED 1937-08-27 06:00:00 NR 14.6293 115.192 main 507 504 __________P___ -1 14.6293 115.192 4 6 310
1937234N10136 1937 34 WP MM NOT_NAMED 1937-08-27 09:00:00 NR 14.8269 114.972 main 521 521 __________P___ -1 14.8269 114.972 4 6 314
1937234N10136 1937 34 WP MM NOT_NAMED 1937-08-27 10:00:00 NR 14.9000 114.900 main 529 529 __________O___ -1 14.9000 114.900 4 7 317
1937234N10136 1937 34 WP MM NOT_NAMED 1937-08-27 12:00:00 NR 15.0736 114.737 main 545 543 __________P___ -1 15.0736 114.737 4 7 320
1937234N10136 1937 34 WP MM NOT_NAMED 1937-08-27 15:00:00 NR 15.3595 114.497 main 560 532 __________P___ -1 15.3595 114.497 4 7 322
1937234N10136 1937 34 WP MM NOT_NAMED 1937-08-27 18:00:00 NR 15.6511 114.271 main 532 501 __________P___ -1 15.6511 114.271 4 7 323
1937234N10136 1937 34 WP MM NOT_NAMED 1937-08-27 21:00:00 NR 15.9202 114.064 main 501 485 __________P___ -1 15.9202 114.064 4 7 323
1937234N10136 1937 34 WP MM NOT_NAMED 1937-08-27 22:00:00 NR 16.0000 114.000 main 485 470 __________O___ -1 16.0000 114.000 4 5 320
1937234N10136 1937 34 WP MM NOT_NAMED 1937-08-28 00:00:00 NR 16.1205 113.890 main 470 439 __________P___ -1 16.1205 113.890 4 4 318
1937234N10136 1937 34 WP MM NOT_NAMED 1937-08-28 03:00:00 NR 16.2697 113.745 main 439 424 __________P___ -1 16.2697 113.745 4 4 316
1937234N10136 1937 34 WP MM NOT_NAMED 1937-08-28 06:00:00 NR 16.4032 113.607 main 424 409 __________P___ -1 16.4032 113.607 4 4 315
1937234N10136 1937 34 WP MM NOT_NAMED 1937-08-28 09:00:00 NR 16.5460 113.456 main 409 393 __________P___ -1 16.5460 113.456 4 4 315
1937234N10136 1937 34 WP MM NOT_NAMED 1937-08-28 10:00:00 NR 16.6000 113.400 main 393 378 __________O___ -1 16.6000 113.400 4 5 322
1937234N10136 1937 34 WP MM NOT_NAMED 1937-08-28 12:00:00 NR 16.7325 113.301 main 378 340 __________P___ -1 16.7325 113.301 4 5 324
1937234N10136 1937 34 WP MM NOT_NAMED 1937-08-28 15:00:00 NR 16.9503 113.134 main 340 310 __________P___ -1 16.9503 113.134 4 6 321
1937234N10136 1937 34 WP MM NOT_NAMED 1937-08-28 18:00:00 NR 17.1828 112.918 main 310 271 __________P___ -1 17.1828 112.918 4 7 314
1937234N10136 1937 34 WP MM NOT_NAMED 1937-08-28 21:00:00 NR 17.4210 112.622 main 271 256 __________P___ -1 17.4210 112.622 4 8 308
1937234N10136 1937 34 WP MM NOT_NAMED 1937-08-28 22:00:00 NR 17.5000 112.500 main 256 217 __________O___ -1 17.5000 112.500 4 9 303
1937234N10136 1937 34 WP MM NOT_NAMED 1937-08-29 00:00:00 NR 17.6792 112.208 main 217 161 __________P___ -1 17.6792 112.208 4 11 300
1937234N10136 1937 34 WP MM NOT_NAMED 1937-08-29 03:00:00 NR 17.9485 111.689 main 161 92 __________P___ -1 17.9485 111.689 4 12 296
1937234N10136 1937 34 WP MM NOT_NAMED 1937-08-29 06:00:00 NR 18.1874 111.105 main 92 35 __________P___ -1 18.1874 111.105 4 12 290
1937234N10136 1937 34 WP MM NOT_NAMED 1937-08-29 09:00:00 NR 18.3620 110.500 main 35 23 __________P___ -1 18.3620 110.500 4 12 286
1937234N10136 1937 34 WP MM NOT_NAMED 1937-08-29 10:00:00 NR 18.4000 110.300 main 23 0 __________O___ -1 18.4000 110.300 4 11 278
1937234N10136 1937 34 WP MM NOT_NAMED 1937-08-29 12:00:00 NR 18.4413 109.910 main 10 0 __________P___ -1 18.4413 109.910 4 11 272
1937234N10136 1937 34 WP MM NOT_NAMED 1937-08-29 15:00:00 NR 18.4299 109.348 main 0 0 __________P___ -1 18.4299 109.348 4 11 265
1937234N10136 1937 34 WP MM NOT_NAMED 1937-08-29 18:00:00 NR 18.3542 108.806 main 11 22 __________P___ -1 18.3542 108.806 4 10 260
1937234N10136 1937 34 WP MM NOT_NAMED 1937-08-29 21:00:00 NR 18.2413 108.276 main 53 62 __________P___ -1 18.2413 108.276 4 10 257
1937234N10136 1937 34 WP MM NOT_NAMED 1937-08-29 22:00:00 NR 18.2000 108.100 main 71 __________O___ -1 18.2000 108.100 4 10 256

デジタル台風データ・検索

IBTrACS Databaseについて

本データベースは、米国NOAAが公開する1842年以降の世界の熱帯低気圧のベストトラックデータアーカイブInternational Best Track Archive for Climate Stewardship (IBTrACS)を、ウェブで閲覧しやすい形式に変換したものです。

最終更新日:2021-11-26